Terminal Aerodrome Forecast
Issued by NWS Charleston, WV

Current Version | Previous Version | Text Only | Print | Product List | Glossary On
Versions: 1 2 3 4 5 6 7 8 9 10 11 12 13 14 15 16 17 18 19 20 21 22 23 24 25 26 27 28 29 30
133
FTUS41 KRLX 310552
TAFCRW
TAF
KCRW 310552Z 3106/0106 18004KT P6SM BKN050
     FM310900 00000KT 4SM BR BKN080
      TEMPO 3110/3112 3/4SM BR BKN001
     FM311300 00000KT 6SM BR VCTS BKN025CB
     FM311500 VRB03KT P6SM BKN035
     FM010500 00000KT 6SM BR SCT060=

USA.gov is the U.S. government's official web portal to all federal, state and local government web resources and services.